Dunnottar Airfield


Codes: FADR/
Name: Dunnottar Airfield
City: Dunnottar
Country: South Africa
Elevation: 5241 ft.

Photos at Dunnottar Airfield


   Photos courtesy of SpottingLog. You can add your own sightings and photos by signing up for a free trial today.



No photos found.

Weather at Dunnottar Airfield


Time (UTC)DescriptionTempratureWindCloud coverageVisibilityPressureHumidity
19-Apr-2024 06:00Clear Sky13°C4 mph, S0%10000m1024hPa67%
19-Apr-2024 09:00Clear Sky19°C4 mph, S0%10000m1023hPa48%
19-Apr-2024 12:00Clear Sky25°C4 mph, SW0%10000m1018hPa27%
19-Apr-2024 15:00Clear Sky23°C4 mph, S1%10000m1018hPa31%
19-Apr-2024 18:00Scattered Clouds18°C4 mph, S47%10000m1020hPa38%
19-Apr-2024 21:00Clear Sky16°C2 mph, SW0%10000m1021hPa42%
20-Apr-2024 00:00Clear Sky14°C4 mph, S0%10000m1020hPa48%
20-Apr-2024 03:00Clear Sky13°C4 mph, S0%10000m1021hPa52%
20-Apr-2024 06:00Clear Sky17°C4 mph, SW0%10000m1020hPa45%
20-Apr-2024 09:00Clear Sky24°C7 mph, SW1%10000m1018hPa28%
20-Apr-2024 12:00Few Clouds28°C7 mph, SW11%10000m1014hPa19%
20-Apr-2024 15:00Scattered Clouds25°C7 mph, SW40%10000m1014hPa25%
20-Apr-2024 18:00Scattered Clouds19°C4 mph, SW42%10000m1017hPa30%
20-Apr-2024 21:00Broken Clouds17°C4 mph, SW62%10000m1018hPa34%
21-Apr-2024 00:00Broken Clouds16°C4 mph, S59%10000m1018hPa37%
21-Apr-2024 03:00Scattered Clouds15°C4 mph, S48%10000m1018hPa41%
21-Apr-2024 06:00Broken Clouds18°C2 mph, S61%10000m1019hPa37%
21-Apr-2024 09:00Scattered Clouds26°C7 mph, SW42%10000m1016hPa22%
21-Apr-2024 12:00Scattered Clouds29°C7 mph, SW37%10000m1013hPa15%
21-Apr-2024 15:00Clear Sky26°C7 mph, SW5%10000m1013hPa22%
21-Apr-2024 18:00Few Clouds21°C4 mph, S21%10000m1016hPa25%
21-Apr-2024 21:00Clear Sky18°C0 mph, N1%10000m1017hPa30%
22-Apr-2024 00:00Scattered Clouds17°C2 mph, NE50%10000m1017hPa31%
22-Apr-2024 03:00Clear Sky15°C7 mph, NE2%10000m1018hPa36%
22-Apr-2024 06:00Clear Sky19°C4 mph, N7%10000m1019hPa37%
22-Apr-2024 09:00Scattered Clouds27°C9 mph, NW39%10000m1017hPa21%
22-Apr-2024 12:00Scattered Clouds29°C9 mph, NW32%10000m1013hPa14%
22-Apr-2024 15:00Scattered Clouds26°C7 mph, NW32%10000m1014hPa20%
22-Apr-2024 18:00Few Clouds21°C7 mph, NW23%10000m1016hPa27%
22-Apr-2024 21:00Scattered Clouds19°C4 mph, W26%10000m1017hPa31%
23-Apr-2024 00:00Scattered Clouds18°C4 mph, W26%10000m1017hPa31%
23-Apr-2024 03:00Clear Sky17°C2 mph, NW1%10000m1017hPa33%
23-Apr-2024 06:00Clear Sky19°C2 mph, E1%10000m1019hPa32%
23-Apr-2024 09:00Few Clouds27°C7 mph, NW14%10000m1017hPa21%
23-Apr-2024 12:00Few Clouds29°C11 mph, SW20%10000m1014hPa16%
23-Apr-2024 15:00Few Clouds26°C7 mph, SW13%10000m1013hPa21%
23-Apr-2024 18:00Clear Sky21°C2 mph, NW9%10000m1017hPa27%
23-Apr-2024 21:00Clear Sky19°C2 mph, N4%10000m1017hPa30%
24-Apr-2024 00:00Clear Sky16°C7 mph, N3%10000m1018hPa53%
24-Apr-2024 03:00Clear Sky14°C7 mph, N3%10000m1019hPa74%